Crystal — WDJ2406 — position and weather

sailwx.info

Track history (hours):
 
Tides and Currents Weather Stations Pressure Air Temp Water Temp Dewpoint Dewpoint Depression Visibility Wind Speed Wind Dir Waves Ship Positions

Crystal

Owner: Open Oceans LLC, San Diego, CA. More information available from US FCC via Universal Licensing System and Coast Guard Vessel Documentation Center.

Last reported at 2017-Nov-18 01:42 UTC. Time now 2017-Nov-23 16:52 UTC.
Position N 32°42' W 117°23'.

MMSI: 369197000.

Date/timePositionNaut miles runAvg speedWind from/ knotsBaromVisibWave heightAir tempDewpointWater temp
2017-Nov-18 01:42N 32°42' W 117°23'212.5
2017-Nov-18 01:30N 32°43' W 117°25'612.0
2017-Nov-18 01:00N 32°48' W 117°30'511.0
2017-Nov-18 00:30N 32°52' W 117°34'611.7
2017-Nov-18 00:00N 32°56' W 117°40'611.9
2017-Nov-17 23:30N 32°59' W 117°46'36 5.6
2017-Nov-17 17:04N 33°21' W 118°19'11 2.7
2017-Nov-17 13:03N 33°17' W 118°07'1 6.7
2017-Nov-17 12:57N 33°16' W 118°07'2 3.9
2017-Nov-17 12:30N 33°18' W 118°06'3 5.3
2017-Nov-17 11:56N 33°15' W 118°07'9 9.0
2017-Nov-17 10:54N 33°08' W 117°60'4 8.9
2017-Nov-17 10:25N 33°05' W 117°56'4 9.0
2017-Nov-17 10:00N 33°03' W 117°52'5 9.7
2017-Nov-17 09:28N 33°00' W 117°47'4 9.6
2017-Nov-17 09:00N 32°57' W 117°44'510.1
2017-Nov-17 08:30N 32°54' W 117°39'611.2
2017-Nov-17 08:00N 32°50' W 117°34'611.3
2017-Nov-17 07:30N 32°47' W 117°28'611.2
2017-Nov-17 07:00N 32°43' W 117°23'611.2
2017-Nov-17 06:30N 32°40' W 117°18'  
Track history (hours):
 
Tides and Currents Weather Stations Pressure Air Temp Water Temp Dewpoint Dewpoint Depression Visibility Wind Speed Wind Dir Waves Ship Positions

Crystal

Owner: Open Oceans LLC, San Diego, CA. More information available from US FCC via Universal Licensing System and Coast Guard Vessel Documentation Center.

Last reported at 2017-Nov-18 01:42 UTC. Time now 2017-Nov-23 16:52 UTC.
Position N 32°42' W 117°23'.

MMSI: 369197000.

Date/timePositionNaut miles runAvg speedWind from/ knotsBaromVisibWave heightAir tempDewpointWater temp
2017-Nov-18 01:42N 32°42' W 117°23'212.5
2017-Nov-18 01:30N 32°43' W 117°25'612.0
2017-Nov-18 01:00N 32°48' W 117°30'511.0
2017-Nov-18 00:30N 32°52' W 117°34'611.7
2017-Nov-18 00:00N 32°56' W 117°40'611.9
2017-Nov-17 23:30N 32°59' W 117°46'36 5.6
2017-Nov-17 17:04N 33°21' W 118°19'11 2.7
2017-Nov-17 13:03N 33°17' W 118°07'1 6.7
2017-Nov-17 12:57N 33°16' W 118°07'2 3.9
2017-Nov-17 12:30N 33°18' W 118°06'3 5.3
2017-Nov-17 11:56N 33°15' W 118°07'9 9.0
2017-Nov-17 10:54N 33°08' W 117°60'4 8.9
2017-Nov-17 10:25N 33°05' W 117°56'4 9.0
2017-Nov-17 10:00N 33°03' W 117°52'5 9.7
2017-Nov-17 09:28N 33°00' W 117°47'4 9.6
2017-Nov-17 09:00N 32°57' W 117°44'510.1
2017-Nov-17 08:30N 32°54' W 117°39'611.2
2017-Nov-17 08:00N 32°50' W 117°34'611.3
2017-Nov-17 07:30N 32°47' W 117°28'611.2
2017-Nov-17 07:00N 32°43' W 117°23'611.2
2017-Nov-17 06:30N 32°40' W 117°18'  

Dump ship's entire track history